Terminal Aerodrome Forecast
Issued by NWS

Home | Current Version | Previous Version | Graphics & Text | Print | Product List | Glossary On
Versions: 1 2 3 4 5 6 7 8 9 10 11 12 13
000
FTUS45 KGGW 241729
TAFSDY
TAF
KSDY 241729Z 2418/2518 36007KT P6SM OVC018
     FM242100 01005KT P6SM OVC022
     FM250200 VRB03KT P6SM OVC035=

USA.gov is the U.S. government's official web portal to all federal, state and local government web resources and services.